クアラルンプール の空港の天気 - METARとTAF

クアラルンプール国際空港 ( WMKK / KUL ) - マレーシア スランゴール州セパン
飛行場実況気象(Metar)
観測時間01/20 10:30 MYT (01/20 02:30 UTC)
風向・風速北東 4m/s
視程10km以上
天気現象
少しの雲 雲底高度 520m
全天の4割程度の雲 雲底高度 4270m
全天の8割程度の雲 雲底高度 8530m
気温30℃
湿度66%
気圧1012hPa
METARWMKK 200230Z 05008KT 340V100 9999 FEW017CB SCT140 BKN280 30/23 Q1012 NOSIG
過去の天気等 Google飛行場航空写真 Wunderground天気予報

過去48時間のMETAR

飛行場予報(TAF)
発表時間: 1/20 07:00 MYT (1/19 23:00 UTC)
予報対象時間: 20日8時 MYT ~ 21日14時 MYT
風向・風速東北東 3m/s
視程10km以上
少しの雲 雲底高度 910m
20日8時 MYT ~ 20日10時 MYT に徐々に
風向・風速東 4m/s
少しの雲 雲底高度 550m
20日12時 MYT ~ 20日14時 MYT に徐々に
少しの積乱雲 雲底高度 520m
20日18時 MYT ~ 20日20時 MYT に徐々に
風向・風速東 3m/s
少しの雲 雲底高度 910m
TAF WMKK 192300Z 2000/2106 07006KT 9999 FEW030
BECMG 2000/2002 08008KT FEW018
BECMG 2004/2006 FEW017CB
BECMG 2010/2012 08005KT FEW030